createdAt,value
2018-07-11T00:00:05.149Z,21.31
2018-07-11T00:01:05.200Z,21.59
2018-07-11T00:02:58.192Z,21.41
2018-07-11T00:03:58.252Z,21.41
2018-07-11T00:05:51.247Z,21.50
2018-07-11T00:06:51.300Z,21.41
2018-07-11T00:08:44.292Z,21.41
2018-07-11T00:09:44.351Z,21.12
2018-07-11T00:11:37.354Z,21.48
2018-07-11T00:12:37.409Z,21.41
2018-07-11T00:14:30.416Z,21.39
2018-07-11T00:15:30.472Z,20.83
2018-07-11T00:17:23.965Z,21.41
2018-07-11T00:18:24.026Z,21.30
2018-07-11T00:20:17.022Z,21.12
2018-07-11T00:21:17.075Z,21.30
2018-07-11T00:23:10.067Z,20.83
2018-07-11T00:24:10.126Z,21.39
2018-07-11T00:26:03.122Z,20.82
2018-07-11T00:27:03.177Z,20.72
2018-07-11T00:28:56.164Z,20.72
2018-07-11T00:29:56.224Z,21.01
2018-07-11T00:31:49.220Z,20.72
2018-07-11T00:32:49.273Z,20.73
2018-07-11T00:34:42.259Z,20.83
2018-07-11T00:35:42.324Z,20.82
2018-07-11T00:37:35.313Z,21.01
2018-07-11T00:38:35.371Z,20.83
2018-07-11T00:40:28.367Z,20.83
2018-07-11T00:41:28.420Z,21.50
2018-07-11T00:43:21.408Z,20.83
2018-07-11T00:44:21.468Z,21.20
2018-07-11T00:46:14.470Z,21.39
2018-07-11T00:47:14.530Z,21.58
2018-07-11T00:49:07.516Z,21.31
2018-07-11T00:50:07.580Z,21.59
2018-07-11T00:52:00.573Z,21.68
2018-07-11T00:53:00.631Z,21.77
2018-07-11T00:54:53.619Z,21.69
2018-07-11T00:55:53.681Z,21.68
2018-07-11T00:57:46.678Z,21.77
2018-07-11T00:58:46.735Z,21.88
2018-07-11T01:00:39.723Z,21.58
2018-07-11T01:01:39.789Z,21.59
2018-07-11T01:03:32.783Z,21.59
2018-07-11T01:04:32.836Z,21.58
2018-07-11T01:06:25.832Z,21.77
2018-07-11T01:08:38.835Z,21.59
2018-07-11T01:09:38.896Z,21.69
2018-07-11T01:11:31.893Z,21.59
2018-07-11T01:12:31.942Z,21.69
2018-07-11T01:14:24.932Z,21.59
2018-07-11T01:15:24.998Z,21.69
2018-07-11T01:17:18.590Z,21.59
2018-07-11T01:18:18.645Z,21.58
2018-07-11T01:20:11.631Z,21.69
2018-07-11T01:21:11.694Z,21.59
2018-07-11T01:23:04.690Z,21.69
2018-07-11T01:24:04.745Z,21.59
2018-07-11T01:25:57.740Z,21.59
2018-07-11T01:26:57.801Z,21.69
2018-07-11T01:28:50.798Z,21.59
2018-07-11T01:29:50.860Z,21.78
2018-07-11T01:31:43.850Z,21.78
2018-07-11T01:32:43.902Z,21.78
2018-07-11T01:34:36.902Z,21.69
2018-07-11T01:35:36.965Z,21.59
2018-07-11T01:37:29.962Z,21.59
2018-07-11T01:38:30.016Z,21.59
2018-07-11T01:40:23.005Z,21.69
2018-07-11T01:41:23.068Z,21.41
2018-07-11T01:43:16.064Z,21.59
2018-07-11T01:44:16.116Z,21.88
2018-07-11T01:46:09.104Z,21.59
2018-07-11T01:47:09.165Z,21.41
2018-07-11T01:49:02.161Z,21.59
2018-07-11T01:50:02.217Z,21.41
2018-07-11T01:51:55.213Z,21.31
2018-07-11T01:52:55.271Z,21.31
2018-07-11T01:54:48.268Z,21.41
2018-07-11T01:55:48.321Z,21.31
2018-07-11T01:57:41.316Z,21.69
2018-07-11T01:58:41.374Z,21.41
2018-07-11T02:00:34.358Z,21.30
2018-07-11T02:01:34.419Z,21.39
2018-07-11T02:03:27.416Z,21.58
2018-07-11T02:04:27.469Z,21.58
2018-07-11T02:06:20.458Z,21.58
2018-07-11T02:07:20.520Z,21.68
2018-07-11T02:09:13.534Z,21.68
2018-07-11T02:10:13.860Z,21.77
2018-07-11T02:12:06.575Z,21.68
2018-07-11T02:13:06.639Z,21.97
2018-07-11T02:14:59.634Z,21.77
2018-07-11T02:15:59.686Z,22.14
2018-07-11T02:17:53.194Z,21.86
2018-07-11T02:18:53.242Z,21.95
2018-07-11T02:20:46.244Z,22.24
2018-07-11T02:21:46.305Z,22.24
2018-07-11T02:23:39.301Z,22.24
2018-07-11T02:24:39.356Z,22.33
2018-07-11T02:26:32.345Z,22.43
2018-07-11T02:27:32.408Z,22.53
2018-07-11T02:29:25.404Z,22.43
2018-07-11T02:30:25.459Z,22.43
2018-07-11T02:32:18.455Z,22.43
2018-07-11T02:33:18.511Z,22.14
2018-07-11T02:35:11.507Z,22.43
2018-07-11T02:36:11.560Z,22.53
2018-07-11T02:38:04.549Z,22.53
2018-07-11T02:39:04.611Z,22.72
2018-07-11T02:40:57.607Z,22.62
2018-07-11T02:41:57.660Z,22.62
2018-07-11T02:43:50.655Z,22.72
2018-07-11T02:44:50.712Z,22.72
2018-07-11T02:46:43.698Z,22.72
2018-07-11T02:47:43.760Z,22.33
2018-07-11T02:49:36.761Z,22.61
2018-07-11T02:50:36.819Z,22.72
2018-07-11T02:52:29.811Z,22.62
2018-07-11T02:53:29.864Z,22.72
2018-07-11T02:55:22.864Z,23.10
2018-07-11T02:56:22.913Z,23.58
2018-07-11T02:58:15.900Z,23.67
2018-07-11T02:59:15.960Z,23.86
2018-07-11T03:01:08.956Z,23.38
2018-07-11T03:02:09.013Z,23.58
2018-07-11T03:04:02.024Z,23.28
2018-07-11T03:05:02.061Z,23.47
2018-07-11T03:06:55.058Z,23.09
2018-07-11T03:07:55.118Z,23.47
2018-07-11T03:09:48.116Z,23.66
2018-07-11T03:10:48.174Z,23.66
2018-07-11T03:12:41.167Z,23.85
2018-07-11T03:13:41.232Z,23.94
2018-07-11T03:15:34.226Z,23.94
2018-07-11T03:16:34.286Z,23.94
2018-07-11T03:18:27.270Z,24.04
2018-07-11T03:19:27.331Z,24.14
2018-07-11T03:21:20.331Z,23.66
2018-07-11T03:22:20.387Z,23.85
2018-07-11T03:24:13.373Z,23.86
2018-07-11T03:25:13.435Z,23.85
2018-07-11T03:27:06.430Z,23.57
2018-07-11T03:28:06.482Z,23.57
2018-07-11T03:29:59.471Z,23.85
2018-07-11T03:30:59.532Z,23.77
2018-07-11T03:32:52.528Z,23.58
2018-07-11T03:33:52.582Z,23.85
2018-07-11T03:35:45.578Z,23.75
2018-07-11T03:36:45.634Z,23.47
2018-07-11T03:38:38.622Z,23.66
2018-07-11T03:39:38.679Z,23.38
2018-07-11T03:41:31.669Z,23.57
2018-07-11T03:42:31.728Z,23.47
2018-07-11T03:44:24.717Z,23.47
2018-07-11T03:45:24.777Z,23.47
2018-07-11T03:47:17.774Z,23.57
2018-07-11T03:48:17.825Z,23.66
2018-07-11T03:50:10.812Z,23.57
2018-07-11T03:51:10.873Z,23.66
2018-07-11T03:53:03.871Z,23.66
2018-07-11T03:54:03.928Z,23.66
2018-07-11T03:55:56.913Z,23.66
2018-07-11T03:56:56.976Z,23.85
2018-07-11T03:58:49.970Z,23.66
2018-07-11T03:59:50.025Z,23.66
2018-07-11T04:01:43.018Z,23.66
2018-07-11T04:02:43.072Z,23.57
2018-07-11T04:04:36.062Z,23.75
2018-07-11T04:05:36.124Z,23.85
2018-07-11T04:07:29.120Z,23.75
2018-07-11T04:08:29.175Z,23.85
2018-07-11T04:10:22.164Z,23.75
2018-07-11T04:11:22.225Z,23.75
2018-07-11T04:13:15.221Z,23.75
2018-07-11T04:14:15.277Z,24.14
2018-07-11T04:16:08.264Z,23.75
2018-07-11T04:17:08.321Z,23.85
2018-07-11T04:19:01.352Z,23.85
2018-07-11T04:20:01.368Z,23.85
2018-07-11T04:21:54.357Z,23.85
2018-07-11T04:22:54.420Z,23.85
2018-07-11T04:24:47.412Z,23.85
2018-07-11T04:25:47.465Z,24.04
2018-07-11T04:27:40.459Z,23.85
2018-07-11T04:28:40.517Z,23.75
2018-07-11T04:30:33.515Z,23.85
2018-07-11T04:31:33.571Z,24.04
2018-07-11T04:33:26.622Z,23.66
2018-07-11T04:34:26.635Z,23.85
2018-07-11T04:36:19.614Z,23.66
2018-07-11T04:37:19.675Z,23.66
2018-07-11T04:39:12.670Z,23.94
2018-07-11T04:40:12.724Z,23.85
2018-07-11T04:42:06.225Z,23.85
2018-07-11T04:43:06.280Z,23.75
2018-07-11T04:44:59.279Z,23.85
2018-07-11T04:45:59.337Z,24.04
2018-07-11T04:47:52.358Z,24.05
2018-07-11T04:48:52.401Z,23.85
2018-07-11T04:50:45.430Z,23.77
2018-07-11T04:51:45.452Z,24.04
2018-07-11T04:53:38.440Z,23.67
2018-07-11T04:54:38.500Z,23.86
2018-07-11T04:56:31.482Z,23.67
2018-07-11T04:57:31.575Z,23.67
2018-07-11T04:59:24.576Z,23.96
2018-07-11T05:00:24.620Z,23.67
2018-07-11T05:02:17.613Z,23.67
2018-07-11T05:03:17.650Z,23.58
2018-07-11T05:05:10.658Z,23.38
2018-07-11T05:06:10.772Z,23.48
2018-07-11T05:08:03.694Z,23.30
2018-07-11T05:09:03.731Z,23.21
2018-07-11T05:10:56.815Z,23.59
2018-07-11T05:11:56.805Z,23.30
2018-07-11T05:13:49.786Z,23.11
2018-07-11T05:14:49.850Z,23.21
2018-07-11T05:16:42.829Z,22.63
2018-07-11T05:17:42.885Z,22.63
2018-07-11T05:19:35.926Z,22.55
2018-07-11T05:20:35.931Z,22.64
2018-07-11T05:22:29.446Z,23.03
2018-07-11T05:23:29.487Z,22.74
2018-07-11T05:25:22.547Z,22.74
2018-07-11T05:26:22.535Z,22.64
2018-07-11T05:28:15.515Z,22.55
2018-07-11T05:29:15.581Z,23.04
2018-07-11T05:31:08.579Z,22.94
2018-07-11T05:32:08.631Z,22.66
2018-07-11T05:34:01.620Z,23.13
2018-07-11T05:35:01.684Z,22.56
2018-07-11T05:36:54.676Z,22.75
2018-07-11T05:37:54.732Z,23.24
2018-07-11T05:39:47.721Z,23.14
2018-07-11T05:40:47.783Z,23.24
2018-07-11T05:42:40.779Z,23.43
2018-07-11T05:43:40.835Z,23.25
2018-07-11T05:45:33.822Z,24.59
2018-07-11T05:46:33.884Z,24.79
2018-07-11T05:48:26.881Z,24.21
2018-07-11T05:49:26.935Z,26.03
2018-07-11T05:51:19.938Z,26.60
2018-07-11T05:52:19.991Z,26.04
2018-07-11T05:54:12.985Z,26.14
2018-07-11T05:55:13.049Z,27.28
2018-07-11T05:57:06.052Z,26.63
2018-07-11T05:58:06.109Z,27.59
2018-07-11T05:59:59.159Z,28.64
2018-07-11T06:00:59.166Z,33.04
2018-07-11T06:02:52.162Z,35.06
2018-07-11T06:03:52.216Z,33.45
2018-07-11T06:05:45.210Z,33.83
2018-07-11T06:06:45.269Z,36.32
2018-07-11T06:08:38.265Z,37.20
2018-07-11T06:09:38.319Z,36.82
2018-07-11T06:11:31.315Z,36.91
2018-07-11T06:12:31.371Z,39.79
2018-07-11T06:14:24.369Z,41.94
2018-07-11T06:15:24.427Z,48.30
2018-07-11T06:17:17.428Z,47.34
2018-07-11T06:18:17.479Z,46.28
2018-07-11T06:20:10.478Z,45.40
2018-07-11T06:21:10.535Z,43.36
2018-07-11T06:23:03.536Z,42.21
2018-07-11T06:24:03.593Z,42.47
2018-07-11T06:25:56.598Z,42.79
2018-07-11T06:26:56.650Z,44.92
2018-07-11T06:28:49.648Z,44.73
2018-07-11T06:29:49.707Z,47.51
2018-07-11T06:31:42.698Z,47.13
2018-07-11T06:32:42.764Z,47.32
2018-07-11T06:34:35.766Z,47.30
2018-07-11T06:35:35.822Z,44.82
2018-07-11T06:37:28.816Z,43.17
2018-07-11T06:38:28.878Z,42.02
2018-07-11T06:40:21.882Z,39.62
2018-07-11T06:41:21.936Z,40.39
2018-07-11T06:43:14.936Z,38.74
2018-07-11T06:44:14.990Z,38.74
2018-07-11T06:46:07.988Z,39.91
2018-07-11T06:47:08.051Z,39.72
2018-07-11T06:49:01.054Z,42.40
2018-07-11T06:50:01.107Z,43.94
2018-07-11T06:51:54.103Z,46.74
2018-07-11T06:52:54.166Z,46.84
2018-07-11T06:54:47.163Z,48.11
2018-07-11T06:55:47.219Z,47.15
2018-07-11T06:57:40.232Z,50.13
2018-07-11T06:58:40.276Z,52.75
2018-07-11T07:00:33.277Z,56.43
2018-07-11T07:01:33.335Z,59.72
2018-07-11T07:03:26.370Z,71.41
2018-07-11T07:04:26.398Z,77.07
2018-07-11T07:06:19.390Z,78.23
2018-07-11T07:07:19.456Z,71.22
2018-07-11T07:09:12.455Z,56.68
2018-07-11T07:10:12.515Z,55.46
2018-07-11T07:12:05.517Z,56.04
2018-07-11T07:13:05.605Z,57.54
2018-07-11T07:14:58.590Z,58.80
2018-07-11T07:15:58.650Z,56.85
2018-07-11T07:17:51.659Z,51.70
2018-07-11T07:18:51.724Z,53.40
2018-07-11T07:20:44.745Z,56.11
2018-07-11T07:21:44.793Z,61.46
2018-07-11T07:23:37.799Z,69.27
2018-07-11T07:24:37.869Z,71.84
2018-07-11T07:26:30.880Z,75.41
2018-07-11T07:27:30.943Z,75.41
2018-07-11T07:29:23.948Z,75.92
2018-07-11T07:30:24.026Z,76.40
2018-07-11T07:32:17.028Z,76.17
2018-07-11T07:33:17.090Z,76.50
2018-07-11T07:35:10.104Z,76.59
2018-07-11T07:36:10.191Z,76.98
2018-07-11T07:38:03.173Z,76.78
2018-07-11T07:39:03.230Z,77.40
2018-07-11T07:40:56.240Z,77.00
2018-07-11T07:41:56.301Z,76.28
2018-07-11T07:43:49.306Z,76.70
2018-07-11T07:44:49.402Z,75.78
2018-07-11T07:46:42.381Z,75.16
2018-07-11T07:47:42.440Z,76.28
2018-07-11T07:49:35.455Z,76.63
2018-07-11T07:50:35.517Z,76.50
2018-07-11T07:52:28.523Z,75.88
2018-07-11T07:53:28.583Z,76.45
2018-07-11T07:55:21.588Z,74.30
2018-07-11T07:56:21.651Z,74.30
2018-07-11T07:58:14.658Z,73.58
2018-07-11T07:59:14.728Z,72.43
2018-07-11T08:01:07.735Z,71.62
2018-07-11T08:02:07.795Z,71.53
2018-07-11T08:04:00.790Z,72.01
2018-07-11T08:05:00.857Z,72.39
2018-07-11T08:06:53.921Z,71.85
2018-07-11T08:07:53.924Z,73.43
2018-07-11T08:09:46.927Z,73.85
2018-07-11T08:10:46.991Z,73.27
2018-07-11T08:12:40.051Z,73.69
2018-07-11T08:13:40.055Z,73.69
2018-07-11T08:15:33.056Z,74.08
2018-07-11T08:16:33.125Z,73.73
2018-07-11T08:18:26.128Z,74.69
2018-07-11T08:19:26.189Z,74.54
2018-07-11T08:21:19.200Z,74.93
2018-07-11T08:22:19.253Z,74.99
2018-07-11T08:24:12.258Z,74.37
2018-07-11T08:25:12.321Z,74.18
2018-07-11T08:27:05.350Z,73.79
2018-07-11T08:28:05.391Z,73.89
2018-07-11T08:29:58.394Z,73.99
2018-07-11T08:30:58.459Z,73.89
2018-07-11T08:32:51.464Z,74.02
2018-07-11T08:33:51.589Z,74.12
2018-07-11T08:35:44.529Z,74.31
2018-07-11T08:36:44.590Z,73.93
2018-07-11T08:38:37.598Z,74.10
2018-07-11T08:39:37.657Z,74.36
2018-07-11T08:41:30.674Z,69.15
2018-07-11T08:42:30.736Z,70.43
2018-07-11T08:44:24.241Z,73.10
2018-07-11T08:45:24.298Z,73.07
2018-07-11T08:47:17.310Z,73.77
2018-07-11T08:48:17.384Z,73.96
2018-07-11T08:50:10.379Z,74.31
2018-07-11T08:51:10.448Z,74.41
2018-07-11T08:53:03.457Z,74.89
2018-07-11T08:54:03.517Z,74.60
2018-07-11T08:55:56.522Z,75.12
2018-07-11T08:56:56.592Z,74.38
2018-07-11T08:58:49.601Z,72.78
2018-07-11T08:59:49.663Z,73.26
2018-07-11T09:01:42.657Z,74.10
2018-07-11T09:02:42.751Z,73.90
2018-07-11T09:04:35.738Z,74.35
2018-07-11T09:05:35.801Z,73.96
2018-07-11T09:07:28.803Z,74.99
2018-07-11T09:08:28.867Z,74.12
2018-07-11T09:10:21.874Z,74.18
2018-07-11T09:11:21.939Z,73.79
2018-07-11T09:13:14.941Z,73.66
2018-07-11T09:14:15.008Z,73.47
2018-07-11T09:16:08.013Z,73.57
2018-07-11T09:17:08.076Z,72.85
2018-07-11T09:19:01.087Z,72.27
2018-07-11T09:20:01.148Z,72.37
2018-07-11T09:21:54.152Z,71.70
2018-07-11T09:22:54.212Z,71.28
2018-07-11T09:24:47.221Z,70.70
2018-07-11T09:25:47.279Z,71.28
2018-07-11T09:27:40.277Z,69.93
2018-07-11T09:28:40.342Z,69.45
2018-07-11T09:30:33.400Z,69.15
2018-07-11T09:31:33.405Z,68.96
2018-07-11T09:33:26.408Z,69.06
2018-07-11T09:34:26.473Z,68.68
2018-07-11T09:36:19.472Z,67.36
2018-07-11T09:37:19.530Z,70.83
2018-07-11T09:39:12.526Z,71.12
2018-07-11T09:40:12.592Z,71.12
2018-07-11T09:42:05.593Z,71.73
2018-07-11T09:43:05.652Z,71.34
2018-07-11T09:44:59.175Z,71.54
2018-07-11T09:45:59.227Z,71.44
2018-07-11T09:47:52.225Z,71.64
2018-07-11T09:48:52.292Z,72.06
2018-07-11T09:50:45.298Z,72.54
2018-07-11T09:51:45.359Z,73.31
2018-07-11T09:53:38.360Z,73.25
2018-07-11T09:54:38.421Z,72.77
2018-07-11T09:56:31.424Z,73.35
2018-07-11T09:57:31.485Z,73.63
2018-07-11T09:59:24.486Z,74.31
2018-07-11T10:00:24.552Z,73.73
2018-07-11T10:02:17.557Z,74.44
2018-07-11T10:03:17.618Z,74.16
2018-07-11T10:05:10.653Z,74.44
2018-07-11T10:06:10.682Z,74.00
2018-07-11T10:08:03.680Z,74.13
2018-07-11T10:09:03.753Z,74.23
2018-07-11T10:10:56.756Z,73.88
2018-07-11T10:11:56.839Z,73.46
2018-07-11T10:13:49.819Z,74.13
2018-07-11T10:14:49.880Z,74.19
2018-07-11T10:16:42.889Z,73.80
2018-07-11T10:17:42.949Z,74.10
2018-07-11T10:19:35.946Z,74.35
2018-07-11T10:20:36.013Z,74.73
2018-07-11T10:22:29.023Z,73.63
2018-07-11T10:23:29.087Z,74.41
2018-07-11T10:25:22.085Z,74.06
2018-07-11T10:26:22.151Z,74.64
2018-07-11T10:28:15.164Z,74.16
2018-07-11T10:29:15.224Z,74.48
2018-07-11T10:31:08.237Z,74.19
2018-07-11T10:32:08.298Z,74.29
2018-07-11T10:34:01.302Z,74.77
2018-07-11T10:35:01.367Z,74.06
2018-07-11T10:36:54.373Z,74.35
2018-07-11T10:37:54.429Z,73.77
2018-07-11T10:39:47.436Z,74.25
2018-07-11T10:40:47.501Z,74.16
2018-07-11T10:42:40.511Z,74.06
2018-07-11T10:43:40.570Z,74.21
2018-07-11T10:45:33.580Z,74.31
2018-07-11T10:46:33.643Z,74.41
2018-07-11T10:48:26.649Z,74.21
2018-07-11T10:49:26.706Z,73.89
2018-07-11T10:51:19.708Z,74.12
2018-07-11T10:52:19.778Z,73.50
2018-07-11T10:54:12.794Z,73.73
2018-07-11T10:55:12.854Z,73.63
2018-07-11T10:57:05.862Z,73.79
2018-07-11T10:58:05.917Z,73.79
2018-07-11T10:59:58.915Z,73.69
2018-07-11T11:01:05.700Z,74.60
2018-07-11T11:02:51.984Z,74.41
2018-07-11T11:03:52.058Z,73.93
2018-07-11T11:05:45.048Z,75.31
2018-07-11T11:06:45.123Z,74.35
2018-07-11T11:08:38.119Z,75.02
2018-07-11T11:09:38.180Z,74.93
2018-07-11T11:11:31.196Z,74.38
2018-07-11T11:12:31.248Z,74.96
2018-07-11T11:14:24.254Z,74.58
2018-07-11T11:15:24.325Z,74.64
2018-07-11T11:17:17.333Z,73.93
2018-07-11T11:18:17.383Z,74.69
2018-07-11T11:20:10.382Z,74.06
2018-07-11T11:21:10.451Z,73.63
2018-07-11T11:23:03.456Z,73.35
2018-07-11T11:24:03.515Z,72.58
2018-07-11T11:25:56.534Z,70.67
2018-07-11T11:26:56.589Z,68.26
2018-07-11T11:28:49.592Z,53.29
2018-07-11T11:29:49.648Z,46.06
2018-07-11T11:31:42.646Z,26.86
2018-07-11T11:32:42.753Z,19.24
2018-07-11T11:34:35.716Z,16.35
2018-07-11T11:35:35.815Z,16.82
2018-07-11T11:37:28.773Z,18.36
2018-07-11T11:38:28.839Z,18.36
2018-07-11T11:40:21.841Z,20.00
2018-07-11T11:41:21.900Z,20.38
2018-07-11T11:43:14.910Z,21.34
2018-07-11T11:44:14.961Z,20.67
2018-07-11T11:46:07.956Z,20.76
2018-07-11T11:47:08.020Z,20.57
2018-07-11T11:49:01.023Z,21.06
2018-07-11T11:50:01.080Z,21.15
2018-07-11T11:51:54.081Z,20.58
2018-07-11T11:52:54.145Z,20.67
2018-07-11T11:54:47.154Z,20.87
2018-07-11T11:55:47.206Z,21.25
2018-07-11T11:57:40.200Z,20.97
2018-07-11T11:58:40.357Z,20.87
2018-07-11T12:00:33.271Z,20.97
2018-07-11T12:01:33.352Z,20.77
2018-07-11T12:03:26.326Z,20.87
2018-07-11T12:04:26.388Z,20.11
2018-07-11T12:06:19.394Z,20.59
2018-07-11T12:07:19.510Z,20.30
2018-07-11T12:09:12.462Z,20.97
2018-07-11T12:10:12.519Z,20.97
2018-07-11T12:12:05.523Z,20.01
2018-07-11T12:13:05.584Z,20.20
2018-07-11T12:14:58.586Z,21.17
2018-07-11T12:15:58.649Z,20.97
2018-07-11T12:17:51.649Z,20.78
2018-07-11T12:18:51.713Z,20.88
2018-07-11T12:20:44.715Z,20.78
2018-07-11T12:21:44.775Z,21.07
2018-07-11T12:23:37.778Z,20.88
2018-07-11T12:24:37.839Z,20.78
2018-07-11T12:26:30.845Z,20.87
2018-07-11T12:27:30.895Z,21.06
2018-07-11T12:29:23.906Z,21.44
2018-07-11T12:30:23.964Z,21.35
2018-07-11T12:32:16.974Z,20.87
2018-07-11T12:33:17.027Z,21.45
2018-07-11T12:35:10.027Z,21.73
2018-07-11T12:36:10.086Z,21.25
2018-07-11T12:38:03.083Z,21.07
2018-07-11T12:39:03.145Z,21.26
2018-07-11T12:40:56.147Z,21.84
2018-07-11T12:41:56.205Z,21.26
2018-07-11T12:43:49.199Z,21.17
2018-07-11T12:44:49.271Z,22.03
2018-07-11T12:46:42.283Z,21.26
2018-07-11T12:47:42.340Z,21.45
2018-07-11T12:49:35.337Z,21.07
2018-07-11T12:50:35.424Z,21.26
2018-07-11T12:52:28.403Z,20.88
2018-07-11T12:53:28.464Z,21.65
2018-07-11T12:55:21.470Z,21.07
2018-07-11T12:56:21.527Z,22.13
2018-07-11T12:58:14.522Z,21.26
2018-07-11T12:59:14.588Z,21.17
2018-07-11T13:01:07.595Z,21.17
2018-07-11T13:02:07.647Z,21.84
2018-07-11T13:04:00.653Z,21.26
2018-07-11T13:05:00.710Z,21.65
2018-07-11T13:06:53.711Z,21.36
2018-07-11T13:07:53.771Z,21.75
2018-07-11T13:09:46.766Z,21.54
2018-07-11T13:10:46.836Z,22.02
2018-07-11T13:12:39.840Z,22.78
2018-07-11T13:13:39.897Z,23.55
2018-07-11T13:15:32.925Z,24.02
2018-07-11T13:16:32.968Z,24.32
2018-07-11T13:18:25.988Z,25.28
2018-07-11T13:19:26.027Z,25.67
2018-07-11T13:21:19.032Z,25.38
2018-07-11T13:22:19.085Z,25.67
2018-07-11T13:24:12.083Z,25.28
2018-07-11T13:25:12.144Z,25.76
2018-07-11T13:27:06.148Z,25.76
2018-07-11T13:28:06.204Z,25.57
2018-07-11T13:29:59.205Z,25.28
2018-07-11T13:30:59.262Z,25.28
2018-07-11T13:32:52.272Z,25.47
2018-07-11T13:33:52.329Z,25.85
2018-07-11T13:35:45.328Z,25.84
2018-07-11T13:36:45.395Z,26.32
2018-07-11T13:38:38.394Z,25.84
2018-07-11T13:39:38.451Z,26.42
2018-07-11T13:41:31.467Z,26.61
2018-07-11T13:42:31.514Z,26.13
2018-07-11T13:44:24.508Z,26.81
2018-07-11T13:45:24.571Z,26.51
2018-07-11T13:47:17.572Z,26.42
2018-07-11T13:48:17.681Z,26.81
2018-07-11T13:50:11.144Z,26.42
2018-07-11T13:51:11.197Z,26.90
2018-07-11T13:53:04.227Z,27.28
2018-07-11T13:54:04.307Z,27.38
2018-07-11T13:55:57.255Z,27.67
2018-07-11T13:56:57.361Z,27.48
2018-07-11T13:58:50.315Z,27.19
2018-07-11T13:59:50.397Z,27.67
2018-07-11T14:01:43.387Z,27.56
2018-07-11T14:02:43.434Z,27.58
2018-07-11T14:04:36.471Z,27.86
2018-07-11T14:05:36.500Z,27.69
2018-07-11T14:07:29.646Z,27.30
2018-07-11T14:08:29.541Z,27.20
2018-07-11T14:10:22.540Z,27.22
2018-07-11T14:11:22.654Z,27.40
2018-07-11T14:13:15.605Z,27.40
2018-07-11T14:14:15.883Z,27.02
2018-07-11T14:16:08.657Z,26.94
2018-07-11T14:17:08.812Z,26.84
2018-07-11T14:19:01.814Z,26.94
2018-07-11T14:20:01.854Z,26.65
2018-07-11T14:21:54.780Z,26.27
2018-07-11T14:22:54.842Z,26.37
2018-07-11T14:24:47.866Z,26.28
2018-07-11T14:25:47.925Z,25.90
2018-07-11T14:27:41.138Z,26.18
2018-07-11T14:28:41.042Z,25.90
2018-07-11T14:30:34.089Z,25.81
2018-07-11T14:31:34.054Z,26.37
2018-07-11T14:33:27.064Z,26.58
2018-07-11T14:34:27.119Z,25.91
2018-07-11T14:36:20.120Z,25.91
2018-07-11T14:37:20.225Z,26.20
2018-07-11T14:39:13.294Z,25.33
2018-07-11T14:40:13.640Z,26.20
2018-07-11T14:42:06.259Z,26.02
2018-07-11T14:43:06.330Z,26.31
2018-07-11T14:44:59.329Z,26.31
2018-07-11T14:45:59.388Z,26.11
2018-07-11T14:47:52.381Z,26.31
2018-07-11T14:48:52.466Z,25.15
2018-07-11T14:50:45.454Z,25.34
2018-07-11T14:51:45.513Z,27.27
2018-07-11T14:53:38.515Z,25.91
2018-07-11T14:54:38.572Z,25.62
2018-07-11T14:56:31.630Z,25.13
2018-07-11T14:57:31.645Z,26.29
2018-07-11T14:59:24.650Z,25.32
2018-07-11T15:00:24.707Z,25.90
2018-07-11T15:02:17.709Z,25.70
2018-07-11T15:03:17.776Z,26.47
2018-07-11T15:05:10.976Z,25.90
2018-07-11T15:06:11.052Z,25.80
2018-07-11T15:08:03.849Z,25.80
2018-07-11T15:09:04.141Z,26.18
2018-07-11T15:10:56.918Z,25.03
2018-07-11T15:11:57.192Z,25.90
2018-07-11T15:13:49.983Z,25.98
2018-07-11T15:14:50.179Z,25.79
2018-07-11T15:16:43.058Z,25.98
2018-07-11T15:17:43.125Z,25.79
2018-07-11T15:19:36.113Z,25.98
2018-07-11T15:20:36.169Z,25.21
2018-07-11T15:22:29.172Z,26.07
2018-07-11T15:23:29.237Z,26.07
2018-07-11T15:25:22.234Z,26.46
2018-07-11T15:26:22.294Z,26.46
2018-07-11T15:28:15.810Z,25.99
2018-07-11T15:29:16.148Z,26.28
2018-07-11T15:31:08.875Z,26.28
2018-07-11T15:32:08.932Z,26.67
2018-07-11T15:34:01.930Z,26.20
2018-07-11T15:35:01.996Z,26.87
2018-07-11T15:36:55.009Z,26.78
2018-07-11T15:37:55.076Z,26.58
2018-07-11T15:39:48.062Z,26.58
2018-07-11T15:40:48.123Z,26.58
2018-07-11T15:42:41.121Z,26.89
2018-07-11T15:43:41.213Z,27.08
2018-07-11T15:45:34.254Z,27.37
2018-07-11T15:46:34.241Z,27.85
2018-07-11T15:48:27.241Z,27.08
2018-07-11T15:49:27.305Z,26.50
2018-07-11T15:51:20.306Z,27.37
2018-07-11T15:52:20.365Z,26.79
2018-07-11T15:54:13.363Z,26.40
2018-07-11T15:55:13.432Z,28.72
2018-07-11T15:57:06.441Z,27.16
2018-07-11T15:58:06.497Z,26.00
2018-07-11T15:59:59.566Z,25.60
2018-07-11T16:00:59.560Z,25.80
2018-07-11T16:02:52.562Z,26.67
2018-07-11T16:03:52.625Z,25.80
2018-07-11T16:05:45.714Z,26.00
2018-07-11T16:06:45.685Z,26.29
2018-07-11T16:08:38.687Z,27.06
2018-07-11T16:09:38.752Z,26.68
2018-07-11T16:11:31.773Z,26.97
2018-07-11T16:12:31.833Z,26.58
2018-07-11T16:14:24.834Z,27.45
2018-07-11T16:15:24.894Z,27.06
2018-07-11T16:17:17.902Z,27.64
2018-07-11T16:18:17.962Z,27.85
2018-07-11T16:20:12.289Z,27.26
2018-07-11T16:21:12.253Z,26.50
2018-07-11T16:23:05.317Z,27.26
2018-07-11T16:24:05.352Z,26.87
2018-07-11T16:25:58.769Z,26.87
2018-07-11T16:26:58.565Z,26.48
2018-07-11T16:28:51.588Z,27.83
2018-07-11T16:29:51.611Z,27.26
2018-07-11T16:31:44.666Z,26.87
2018-07-11T16:32:44.672Z,26.69
2018-07-11T16:34:37.720Z,28.42
2018-07-11T16:35:37.824Z,28.42
2018-07-11T16:37:30.788Z,28.33
2018-07-11T16:38:30.972Z,29.00
2018-07-11T16:40:23.962Z,30.74
2018-07-11T16:41:23.865Z,30.45
2018-07-11T16:43:16.971Z,29.89
2018-07-11T16:44:17.075Z,29.50
2018-07-11T16:46:10.000Z,29.50
2018-07-11T16:47:09.986Z,31.91
2018-07-11T16:49:03.064Z,31.33
2018-07-11T16:50:03.100Z,29.89
2018-07-11T16:51:56.400Z,31.43
2018-07-11T16:52:56.161Z,31.14
2018-07-11T16:54:49.161Z,29.98
2018-07-11T16:55:49.274Z,30.76
2018-07-11T16:57:42.435Z,30.85
2018-07-11T16:58:42.288Z,33.65
2018-07-11T17:00:35.315Z,32.78
2018-07-11T17:01:35.373Z,32.67
2018-07-11T17:03:28.371Z,31.90
2018-07-11T17:04:28.453Z,33.53
2018-07-11T17:06:21.445Z,32.57
2018-07-11T17:07:21.761Z,30.45
2018-07-11T17:09:16.004Z,32.28
2018-07-11T17:10:16.126Z,31.32
2018-07-11T17:12:09.088Z,31.33
2018-07-11T17:13:09.194Z,31.41
2018-07-11T17:15:02.133Z,30.83
2018-07-11T17:16:02.400Z,30.56
2018-07-11T17:17:55.371Z,30.18
2018-07-11T17:18:55.335Z,32.09
2018-07-11T17:20:48.257Z,32.18
2018-07-11T17:21:48.359Z,29.97
2018-07-11T17:23:41.570Z,31.51
2018-07-11T17:24:41.404Z,29.97
2018-07-11T17:26:34.448Z,31.22
2018-07-11T17:27:34.469Z,30.05
2018-07-11T17:29:27.578Z,29.97
2018-07-11T17:30:27.541Z,30.07
2018-07-11T17:32:20.725Z,29.58
2018-07-11T17:33:20.610Z,29.10
2018-07-11T17:35:13.600Z,28.72
2018-07-11T17:36:13.672Z,28.31
2018-07-11T17:38:06.689Z,27.16
2018-07-11T17:39:06.740Z,27.93
2018-07-11T17:40:59.742Z,25.42
2018-07-11T17:41:59.826Z,24.93
2018-07-11T17:43:52.813Z,25.21
2018-07-11T17:44:52.873Z,25.88
2018-07-11T17:46:45.873Z,26.73
2018-07-11T17:47:45.935Z,27.40
2018-07-11T17:49:38.942Z,28.08
2018-07-11T17:50:39.001Z,28.26
2018-07-11T17:52:32.007Z,28.45
2018-07-11T17:53:32.065Z,29.13
2018-07-11T17:55:25.066Z,29.32
2018-07-11T17:56:25.444Z,29.22
2018-07-11T17:58:18.138Z,29.61
2018-07-11T17:59:18.191Z,29.51
2018-07-11T18:01:11.190Z,30.08
2018-07-11T18:02:12.397Z,29.90
2018-07-11T18:04:04.292Z,30.08
2018-07-11T18:05:04.345Z,30.55
2018-07-11T18:06:57.335Z,30.26
2018-07-11T18:07:57.401Z,30.08
2018-07-11T18:09:50.912Z,30.08
2018-07-11T18:10:50.969Z,30.08
2018-07-11T18:12:43.968Z,30.66
2018-07-11T18:13:44.029Z,30.38
2018-07-11T18:15:37.033Z,30.46
2018-07-11T18:16:37.089Z,30.26
2018-07-11T18:18:30.101Z,30.46
2018-07-11T18:19:30.159Z,30.57
2018-07-11T18:21:23.162Z,30.28
2018-07-11T18:22:23.220Z,30.26
2018-07-11T18:24:16.223Z,30.46
2018-07-11T18:25:16.281Z,30.36
2018-07-11T18:27:09.276Z,30.17
2018-07-11T18:28:09.340Z,30.38
2018-07-11T18:30:02.342Z,30.18
2018-07-11T18:31:02.399Z,30.08
2018-07-11T18:32:55.401Z,30.26
2018-07-11T18:33:55.471Z,30.28